HKMO

Mombasa Moi International Airport

Mombasa, Kenya
METAR HKMO 151300Z 10008KT 9999 FEW026 30/22 Q1008 NOSIG
Observed Flight Rules
Dec-15 @ 13:00 UTC (60 minutes ago) Visual Flight Rules
Wind Visibility Clouds
100° at 8 knots 10,000+ meters
  • Few at 2,600' AGL
Temperatures Readings
Current 30°C / 86°F
Dewpoint 22°C / 72°F
Humidity 62%
Altimeter 29.76" Hg
Pressure 1008 hPa
Elevation 55
METAR HKMO 151300Z 10008KT 9999 FEW026 30/22 Q1008 NOSIG
Observed Flight Rules
Dec-15 @ 13:00 UTC
(60 minutes ago)
VFR
Wind Visibility
100° at 8 knots 10,000+ meters
Clouds
  • Few at 2,600' AGL
Temperature Dewpoint
30°C / 86°F 22°C / 72°F
Humidity Altimeter Pressure
62% 29.76" Hg 1008 hPa